Time;durP1;ratioP1;P1;durP2;ratioP2;P2;SDS_P1;SDS_P2;PMS_P1;PMS_P2;Temp;Humidity;BMP_temperature;BMP_pressure;BME280_temperature;BME280_humidity;BME280_pressure;Samples;Min_cycle;Max_cycle;Signal;HPM_P1;HPM_P2
2023/11/13 00:01:42;;;;;;;13.73;6.53;;;8.00;1.00;;;;;;5052844;28;20932;-74
2023/11/13 00:04:08;;;;;;;9.07;5.70;;;;;;;;;;5065341;28;20426;-74
2023/11/13 00:06:51;;;;;;;13.23;5.43;;;8.10;1.00;;;;;;5053768;28;20655;-74
2023/11/13 00:09:33;;;;;;;9.50;5.53;;;8.10;1.00;;;;;;5053184;28;20955;-73
2023/11/13 00:11:59;;;;;;;10.73;5.20;;;8.20;1.00;;;;;;5060735;28;20468;-74
2023/11/13 00:14:24;;;;;;;9.93;5.17;;;8.20;1.00;;;;;;5053681;28;20453;-73
2023/11/13 00:16:50;;;;;;;8.97;5.27;;;8.20;1.00;;;;;;5057416;28;20187;-74
2023/11/13 00:19:27;;;;;;;8.30;5.00;;;8.20;1.00;;;;;;5075138;28;20237;-73
2023/11/13 00:22:04;;;;;;;8.40;4.63;;;8.20;1.00;;;;;;5065328;28;20434;-74
2023/11/13 00:27:51;;;;;;;7.93;4.30;;;8.10;1.00;;;;;;5053352;28;20425;-84
2023/11/13 00:30:33;;;;;;;6.63;4.60;;;;;;;;;;5055700;28;20454;-84
2023/11/13 00:32:59;;;;;;;8.83;4.57;;;;;;;;;;5036027;28;20234;-82
2023/11/13 00:36:09;;;;;;;12.40;5.10;;;8.10;1.00;;;;;;5070835;28;20827;-84
2023/11/13 00:39:15;;;;;;;7.20;4.03;;;8.10;1.00;;;;;;5075857;28;20540;-83
2023/11/13 00:41:41;;;;;;;9.00;3.97;;;8.20;1.00;;;;;;5068334;28;20445;-74
2023/11/13 00:44:21;;;;;;;5.80;3.47;;;8.20;1.00;;;;;;5076529;28;20732;-74
2023/11/13 00:46:51;;;;;;;5.20;3.47;;;8.20;1.00;;;;;;5058468;28;20501;-74
2023/11/13 00:49:27;;;;;;;7.40;3.30;;;8.20;1.00;;;;;;5055914;28;20454;-74
2023/11/13 00:52:03;;;;;;;6.20;3.73;;;8.30;1.00;;;;;;5055325;28;20869;-74
2023/11/13 00:54:39;;;;;;;9.67;3.30;;;8.30;1.00;;;;;;5055964;28;20418;-83
2023/11/13 00:57:15;;;;;;;3.00;2.40;;;8.20;1.00;;;;;;5054725;28;20433;-84
2023/11/13 00:59:41;;;;;;;3.10;2.80;;;8.30;1.00;;;;;;5055188;28;20423;-83
2023/11/13 01:02:15;;;;;;;5.03;2.90;;;8.30;1.00;;;;;;5059010;28;20438;-83
2023/11/13 01:08:27;;;;;;;3.90;2.13;;;8.30;1.00;;;;;;5071206;28;20416;-83
2023/11/13 01:11:15;;;;;;;5.13;2.20;;;8.30;1.00;;;;;;5056749;28;20964;-83
2023/11/13 01:13:45;;;;;;;3.37;2.50;;;;;;;;;;5045667;28;20435;-83
2023/11/13 01:22:55;;;;;;;2.20;1.67;;;;;;;;;;5057848;28;20395;-84
2023/11/13 01:25:44;;;;;;;3.53;1.97;;;8.40;1.00;;;;;;5074693;28;20458;-83
2023/11/13 01:31:51;;;;;;;2.40;1.70;;;8.50;1.00;;;;;;5055400;28;20432;-83
2023/11/13 01:41:00;;;;;;;5.63;2.10;;;;;;;;;;5041114;28;20924;-83
2023/11/13 01:50:28;;;;;;;3.23;1.93;;;;;;;;;;5063174;28;20444;-83
2023/11/13 01:56:16;;;;;;;3.23;2.90;;;8.40;1.00;;;;;;5051379;28;20465;-83
2023/11/13 02:02:04;;;;;;;4.43;3.10;;;8.30;1.00;;;;;;5055302;28;20483;-84
2023/11/13 02:14:36;;;;;;;5.53;3.27;;;8.30;1.00;;;;;;5058872;28;20475;-83
2023/11/13 02:20:23;;;;;;;4.67;3.30;;;8.30;1.00;;;;;;5068163;28;20766;-83
2023/11/13 02:26:15;;;;;;;3.10;2.80;;;;;;;;;;5059847;28;20186;-83
2023/11/13 02:32:03;;;;;;;9.17;3.07;;;8.40;1.00;;;;;;5054973;28;20463;-83
2023/11/13 02:37:51;;;;;;;4.57;3.30;;;;;;;;;;5067062;28;20487;-84
2023/11/13 02:40:17;;;;;;;3.80;3.40;;;8.40;1.00;;;;;;5060490;28;20488;-74
2023/11/13 02:42:45;;;;;;;4.03;3.30;;;8.40;1.00;;;;;;5056228;28;20441;-74
2023/11/13 02:45:15;;;;;;;6.80;3.60;;;8.40;1.00;;;;;;5034155;28;20165;-73
2023/11/13 02:47:41;;;;;;;3.27;2.97;;;8.40;1.00;;;;;;5048025;28;20940;-74
2023/11/13 02:50:09;;;;;;;3.57;2.97;;;8.40;1.00;;;;;;5053847;28;20481;-74
2023/11/13 02:52:35;;;;;;;7.90;3.37;;;8.40;1.00;;;;;;5067966;28;20179;-74
2023/11/13 02:55:05;;;;;;;6.40;3.23;;;8.40;1.00;;;;;;5065288;28;20421;-73
2023/11/13 02:58:16;;;;;;;5.83;3.43;;;8.40;1.00;;;;;;5053703;28;20931;-84
2023/11/13 03:10:47;;;;;;;6.07;3.30;;;;;;;;;;5041385;28;20480;-74
2023/11/13 03:13:27;;;;;;;5.70;3.43;;;8.30;1.00;;;;;;5053703;28;20897;-74
2023/11/13 03:15:53;;;;;;;6.10;3.87;;;8.30;1.00;;;;;;5063912;28;20434;-74
2023/11/13 03:18:39;;;;;;;9.97;3.67;;;8.40;1.00;;;;;;5051221;28;20428;-74
2023/11/13 03:21:06;;;;;;;4.50;3.40;;;8.40;1.00;;;;;;5052829;28;20176;-75
2023/11/13 03:23:51;;;;;;;3.20;2.90;;;8.40;1.00;;;;;;5053627;28;20406;-74
2023/11/13 03:29:51;;;;;;;3.17;2.83;;;8.40;1.00;;;;;;5033991;28;20469;-84
2023/11/13 03:42:23;;;;;;;13.53;3.67;;;8.40;1.00;;;;;;5051218;28;20476;-74
2023/11/13 03:44:51;;;;;;;3.90;3.17;;;8.40;1.00;;;;;;5053449;28;20410;-74
2023/11/13 03:47:21;;;;;;;6.03;3.43;;;8.40;1.00;;;;;;5039125;28;20599;-74
2023/11/13 03:49:48;;;;;;;9.03;3.47;;;;;;;;;;5037574;28;20937;-74
2023/11/13 03:52:15;;;;;;;5.27;3.53;;;8.40;1.00;;;;;;5053452;28;20518;-74
2023/11/13 03:54:41;;;;;;;7.10;3.30;;;8.40;1.00;;;;;;5056528;28;20406;-74
2023/11/13 04:00:28;;;;;;;3.43;2.73;;;8.50;1.00;;;;;;5053179;28;20240;-84
2023/11/13 04:02:54;;;;;;;10.00;3.13;;;8.50;1.00;;;;;;5055452;28;20517;-84
2023/11/13 04:08:42;;;;;;;4.87;3.20;;;8.40;1.00;;;;;;5057728;28;20206;-84
2023/11/13 04:11:07;;;;;;;4.97;2.53;;;8.50;1.00;;;;;;5063776;28;20429;-75
2023/11/13 04:13:34;;;;;;;4.40;3.40;;;8.40;1.00;;;;;;5057728;28;20176;-74
2023/11/13 04:16:21;;;;;;;5.13;3.63;;;8.40;1.00;;;;;;5064713;28;20168;-73
2023/11/13 04:18:47;;;;;;;4.67;3.27;;;8.40;1.00;;;;;;5057081;28;20412;-74
2023/11/13 04:21:15;;;;;;;5.00;3.47;;;8.40;1.00;;;;;;5058130;28;20498;-74
2023/11/13 04:23:45;;;;;;;5.77;3.50;;;8.40;1.00;;;;;;5060534;28;20568;-74
2023/11/13 04:26:51;;;;;;;5.27;2.80;;;8.50;1.00;;;;;;5059807;28;20411;-84
2023/11/13 04:33:03;;;;;;;3.17;2.13;;;8.40;1.00;;;;;;5055921;28;20447;-84
2023/11/13 04:36:09;;;;;;;5.43;3.17;;;8.40;1.00;;;;;;5069288;28;20429;-84
2023/11/13 04:38:40;;;;;;;8.23;2.77;;;;;;;;;;5063135;28;20429;-84
2023/11/13 04:41:21;;;;;;;5.93;3.33;;;8.40;1.00;;;;;;5056009;28;20422;-83
2023/11/13 04:43:51;;;;;;;3.80;2.97;;;8.30;1.00;;;;;;5076743;28;20429;-74
2023/11/13 04:46:17;;;;;;;4.40;3.07;;;8.30;1.00;;;;;;5069812;28;20430;-74
2023/11/13 04:48:43;;;;;;;7.30;3.00;;;;;;;;;;5056459;28;20397;-74
2023/11/13 04:51:21;;;;;;;8.10;3.00;;;8.30;1.00;;;;;;5060965;28;20950;-74
2023/11/13 04:53:57;;;;;;;6.20;3.20;;;8.70;1.00;;;;;;5076310;28;20470;-74
2023/11/13 04:56:46;;;;;;;6.33;3.77;;;8.30;1.00;;;;;;5055208;28;20790;-74
2023/11/13 04:59:12;;;;;;;3.90;3.20;;;;;;;;;;5047275;28;20431;-74
2023/11/13 05:01:39;;;;;;;9.20;3.00;;;8.50;1.00;;;;;;5055426;28;20794;-74
2023/11/13 05:04:09;;;;;;;4.07;3.20;;;8.50;1.00;;;;;;5055842;28;20445;-74
2023/11/13 05:06:35;;;;;;;4.30;3.23;;;8.50;1.00;;;;;;5056129;28;20908;-74
2023/11/13 05:09:15;;;;;;;4.60;3.17;;;8.50;1.00;;;;;;5069460;28;20410;-74
2023/11/13 05:15:04;;;;;;;3.13;2.83;;;;;;;;;;5056145;28;20440;-83
2023/11/13 05:17:31;;;;;;;4.27;3.37;;;;;;;;;;5052758;28;20430;-84
2023/11/13 05:20:21;;;;;;;2.33;2.10;;;8.30;1.00;;;;;;5051292;28;20431;-84
2023/11/13 05:26:39;;;;;;;3.87;2.63;;;8.40;1.00;;;;;;5057136;28;20509;-85
2023/11/13 05:29:05;;;;;;;3.23;2.57;;;8.40;1.00;;;;;;5044083;28;20424;-75
2023/11/13 05:31:30;;;;;;;9.43;2.60;;;8.40;1.00;;;;;;5055477;28;20495;-74
2023/11/13 05:34:27;;;;;;;4.03;2.60;;;8.50;1.00;;;;;;5046885;28;20258;-74
2023/11/13 05:37:09;;;;;;;6.63;2.73;;;8.50;1.00;;;;;;5053019;28;20222;-75
2023/11/13 05:39:39;;;;;;;5.17;2.90;;;8.50;1.00;;;;;;5055144;28;20913;-75
2023/11/13 05:42:09;;;;;;;10.50;3.00;;;8.50;1.00;;;;;;5052337;28;21246;-75
2023/11/13 05:45:12;;;;;;;4.80;3.10;;;8.50;1.00;;;;;;5061858;28;20784;-79
2023/11/13 05:47:39;;;;;;;3.67;2.87;;;8.50;1.00;;;;;;5059620;28;20442;-74
2023/11/13 05:50:39;;;;;;;13.60;4.33;;;8.60;1.00;;;;;;5050385;28;21004;-74
2023/11/13 05:53:34;;;;;;;10.60;3.70;;;8.60;1.00;;;;;;5053401;28;20422;-74
2023/11/13 05:56:11;;;;;;;3.10;2.23;;;8.50;1.00;;;;;;5056095;28;20418;-74
2023/11/13 05:58:37;;;;;;;2.93;2.63;;;8.50;1.00;;;;;;5055823;28;20441;-74
2023/11/13 06:01:04;;;;;;;6.33;3.30;;;8.40;1.00;;;;;;5067472;28;20428;-74
2023/11/13 06:03:29;;;;;;;4.50;3.40;;;8.50;1.00;;;;;;5054681;28;20766;-74
2023/11/13 06:06:06;;;;;;;5.93;3.37;;;8.50;1.00;;;;;;5053521;28;20489;-74
2023/11/13 06:08:32;;;;;;;7.67;3.10;;;8.50;1.00;;;;;;5034965;28;20506;-74
2023/11/13 06:10:58;;;;;;;4.23;3.10;;;8.60;1.00;;;;;;5067827;28;20463;-74
2023/11/13 06:13:46;;;;;;;5.60;3.73;;;8.50;1.00;;;;;;5068311;28;20417;-83
2023/11/13 06:16:12;;;;;;;5.03;3.00;;;8.60;1.00;;;;;;5069176;28;20172;-81
2023/11/13 06:18:47;;;;;;;6.40;3.33;;;8.60;1.00;;;;;;5071409;28;20447;-81
2023/11/13 06:21:57;;;;;;;5.53;3.27;;;8.60;1.00;;;;;;5074510;28;20405;-81
2023/11/13 06:27:45;;;;;;;10.03;3.40;;;8.50;1.00;;;;;;5044387;28;20430;-76
2023/11/13 06:30:39;;;;;;;4.70;3.60;;;8.50;1.00;;;;;;5054594;28;20448;-75
2023/11/13 06:33:05;;;;;;;5.33;3.50;;;8.50;1.00;;;;;;5058909;28;20164;-74
2023/11/13 06:38:53;;;;;;;8.23;2.97;;;;;;;;;;5071370;28;20427;-83
2023/11/13 06:41:34;;;;;;;3.83;3.00;;;;;;;;;;5059639;28;20543;-82
2023/11/13 06:47:58;;;;;;;9.90;2.83;;;8.40;1.00;;;;;;5040678;28;20444;-90
2023/11/13 06:50:27;;;;;;;8.60;3.80;;;8.40;1.00;;;;;;5066613;28;20465;-83
2023/11/13 06:56:16;;;;;;;8.17;4.13;;;;;;;;;;5048386;28;20405;-82
2023/11/13 06:58:52;;;;;;;9.93;4.27;;;;;;;;;;5049724;28;20797;-82
2023/11/13 07:04:40;;;;;;;9.23;4.03;;;8.40;1.00;;;;;;5053158;28;20533;-82
2023/11/13 07:07:33;;;;;;;6.33;3.37;;;8.50;1.00;;;;;;5052208;28;20414;-82
2023/11/13 07:13:27;;;;;;;104.00;13.27;;;;;;;;;;5030874;28;20428;-76
2023/11/13 07:16:10;;;;;;;9.87;4.53;;;8.60;1.00;;;;;;5047907;28;20480;-76
2023/11/13 07:18:39;;;;;;;6.80;4.40;;;8.60;1.00;;;;;;5055099;28;20965;-76
2023/11/13 07:21:45;;;;;;;8.53;4.23;;;8.70;1.00;;;;;;5054305;28;20421;-83
2023/11/13 07:27:33;;;;;;;8.53;4.37;;;;;;;;;;5053539;28;20433;-83
2023/11/13 07:30:05;;;;;;;7.60;4.53;;;8.80;1.00;;;;;;5043146;28;20489;-77
2023/11/13 07:32:34;;;;;;;11.40;5.40;;;8.80;1.00;;;;;;5050541;28;20422;-76
2023/11/13 07:34:59;;;;;;;9.63;4.73;;;8.80;1.00;;;;;;5068348;28;20418;-77
2023/11/13 07:37:57;;;;;;;12.20;5.07;;;8.90;1.00;;;;;;5066420;28;20416;-77
2023/11/13 07:44:03;;;;;;;10.50;5.00;;;8.90;1.00;;;;;;5069752;28;20788;-83
2023/11/13 07:47:09;;;;;;;10.47;4.77;;;8.90;1.00;;;;;;5050523;28;20427;-84
2023/11/13 07:50:03;;;;;;;12.87;5.50;;;8.90;1.00;;;;;;5037890;28;20453;-83
2023/11/13 07:53:15;;;;;;;9.43;4.67;;;8.90;1.00;;;;;;5045020;28;20436;-84
2023/11/13 07:56:11;;;;;;;11.20;4.60;;;9.00;1.00;;;;;;5047638;28;20496;-83
2023/11/13 08:01:59;;;;;;;8.10;4.47;;;9.10;1.00;;;;;;5045443;28;20463;-77
2023/11/13 08:04:24;;;;;;;7.47;4.40;;;9.20;1.00;;;;;;5049537;28;20446;-77
2023/11/13 08:07:27;;;;;;;12.03;5.20;;;9.10;1.00;;;;;;5051159;28;20197;-77
2023/11/13 08:10:08;;;;;;;10.47;4.97;;;9.10;1.00;;;;;;5048740;28;20191;-77
2023/11/13 08:15:56;;;;;;;12.07;5.03;;;9.20;1.00;;;;;;5036756;28;20553;-74
2023/11/13 08:18:22;;;;;;;13.60;5.90;;;;;;;;;;5042225;28;20525;-75
2023/11/13 08:20:49;;;;;;;13.23;5.70;;;;;;;;;;5054029;28;20258;-74
2023/11/13 08:23:16;;;;;;;10.30;5.30;;;;;;;;;;5052532;28;20426;-75
2023/11/13 08:25:43;;;;;;;9.83;4.87;;;;;;;;;;5044422;28;20418;-75
2023/11/13 08:28:09;;;;;;;9.03;4.87;;;;;;;;;;5051412;28;20775;-75
2023/11/13 08:30:35;;;;;;;12.10;5.07;;;9.40;1.00;;;;;;5041488;28;20460;-85
2023/11/13 08:33:21;;;;;;;10.07;4.67;;;9.50;1.00;;;;;;5054199;28;20430;-84
2023/11/13 08:36:06;;;;;;;10.73;5.43;;;9.60;1.00;;;;;;5048611;28;20460;-85
2023/11/13 08:39:22;;;;;;;10.17;5.07;;;9.60;1.00;;;;;;5063311;28;20441;-85
2023/11/13 08:41:48;;;;;;;10.40;4.83;;;;;;;;;;5060985;28;20460;-85
2023/11/13 08:44:14;;;;;;;14.27;5.20;;;9.80;1.00;;;;;;5054556;28;20424;-74
2023/11/13 08:46:40;;;;;;;9.20;5.57;;;;;;;;;;5071467;28;20450;-74
2023/11/13 08:49:27;;;;;;;9.77;5.17;;;9.80;1.00;;;;;;5051139;28;20200;-75
2023/11/13 08:51:55;;;;;;;9.27;5.13;;;9.90;1.00;;;;;;5055476;28;20417;-74
2023/11/13 08:54:22;;;;;;;10.87;5.00;;;;;;;;;;5056099;28;20921;-75
2023/11/13 08:56:51;;;;;;;8.13;4.63;;;10.00;1.00;;;;;;5067454;28;20429;-75
2023/11/13 09:03:29;;;;;;;11.20;4.87;;;10.10;1.00;;;;;;5048726;28;20931;-85
2023/11/13 09:06:22;;;;;;;13.40;6.20;;;10.10;1.00;;;;;;5060655;28;20482;-85
2023/11/13 09:12:22;;;;;;;8.80;4.83;;;;;;;;;;5058732;28;20433;-85
2023/11/13 09:14:52;;;;;;;10.23;5.37;;;;;;;;;;5053811;28;20498;-85
2023/11/13 09:20:42;;;;;;;11.30;5.23;;;10.30;1.00;;;;;;5052124;28;20485;-85
2023/11/13 09:23:45;;;;;;;9.43;5.03;;;10.40;1.00;;;;;;5060108;28;20431;-84
2023/11/13 09:26:11;;;;;;;9.93;5.30;;;;;;;;;;5051486;28;20461;-85
2023/11/13 09:28:53;;;;;;;15.50;5.70;;;;;;;;;;5067421;28;20415;-84
2023/11/13 09:37:58;;;;;;;12.23;5.13;;;10.50;1.00;;;;;;5058774;28;20431;-85
2023/11/13 09:40:54;;;;;;;10.83;5.10;;;10.50;1.00;;;;;;5049576;28;20467;-85
2023/11/13 09:43:51;;;;;;;12.17;4.83;;;10.60;1.00;;;;;;5058821;28;20425;-85
2023/11/13 09:46:20;;;;;;;11.10;5.27;;;10.50;1.00;;;;;;5069510;28;20426;-75
2023/11/13 09:48:57;;;;;;;9.37;5.10;;;10.60;1.00;;;;;;5050758;28;20438;-75
2023/11/13 09:51:28;;;;;;;10.83;5.53;;;10.60;1.00;;;;;;5056024;28;20966;-75
2023/11/13 09:53:55;;;;;;;8.93;4.70;;;10.70;1.00;;;;;;5066207;28;20422;-74
2023/11/13 09:56:21;;;;;;;14.97;6.20;;;10.80;1.00;;;;;;5061060;28;20415;-75
2023/11/13 09:59:05;;;;;;;15.93;5.20;;;10.80;1.00;;;;;;5053948;28;20412;-77
2023/11/13 10:01:51;;;;;;;15.53;5.13;;;10.90;1.00;;;;;;5073807;28;20440;-83
2023/11/13 10:04:22;;;;;;;12.60;5.07;;;10.90;1.00;;;;;;5063010;28;20432;-84
2023/11/13 10:07:04;;;;;;;8.20;4.50;;;;;;;;;;5054213;28;20426;-84
2023/11/13 10:10:17;;;;;;;9.90;5.50;;;10.90;1.00;;;;;;5054078;28;20461;-84
2023/11/13 10:16:51;;;;;;;7.90;4.30;;;11.00;1.00;;;;;;5039953;28;20764;-83
2023/11/13 10:19:59;;;;;;;8.33;4.57;;;11.10;1.00;;;;;;5073357;28;20432;-84
2023/11/13 10:26:41;;;;;;;8.50;3.63;;;11.30;4.10;;;;;;5049287;28;20481;-84
2023/11/13 10:29:51;;;;;;;7.43;3.27;;;11.40;7.30;;;;;;5015086;28;20437;-84
2023/11/13 10:32:30;;;;;;;6.30;3.13;;;;;;;;;;5034188;28;20958;-84
2023/11/13 10:34:55;;;;;;;7.20;2.90;;;11.50;9.90;;;;;;5036187;28;20763;-83
2023/11/13 10:37:22;;;;;;;8.63;3.30;;;;;;;;;;5035770;28;20421;-84
2023/11/13 10:39:52;;;;;;;4.63;2.60;;;;;;;;;;5021691;28;20333;-83
2023/11/13 10:45:46;;;;;;;10.97;3.03;;;11.60;10.20;;;;;;5039627;28;20392;-84
2023/11/13 10:48:43;;;;;;;4.90;2.73;;;11.60;12.60;;;;;;5031808;28;20510;-83
2023/11/13 10:51:13;;;;;;;6.13;2.23;;;11.60;14.90;;;;;;4982046;28;21007;-83
2023/11/13 10:54:08;;;;;;;8.30;2.60;;;11.80;14.50;;;;;;4976948;28;20388;-84
2023/11/13 10:56:54;;;;;;;3.40;2.27;;;;;;;;;;4963875;28;20442;-83
2023/11/13 11:00:12;;;;;;;3.60;2.17;;;11.90;13.40;;;;;;4966294;28;20424;-83
2023/11/13 11:06:11;;;;;;;6.70;2.60;;;;;;;;;;4993447;28;20526;-83
2023/11/13 11:09:21;;;;;;;3.37;2.00;;;11.90;17.40;;;;;;4987587;28;20515;-84
2023/11/13 11:11:52;;;;;;;7.83;3.10;;;;;;;;;;4990026;28;20436;-83
2023/11/13 11:14:25;;;;;;;7.10;2.50;;;;;;;;;;4968421;28;20440;-84
2023/11/13 11:17:22;;;;;;;9.93;2.63;;;12.00;14.70;;;;;;4980721;28;20433;-74
2023/11/13 11:19:53;;;;;;;20.33;4.40;;;12.10;14.30;;;;;;4988155;28;20429;-74
2023/11/13 11:22:22;;;;;;;8.50;3.00;;;;;;;;;;4966881;28;20441;-75
2023/11/13 11:24:56;;;;;;;10.93;2.83;;;12.20;11.90;;;;;;4969598;28;20470;-74
2023/11/13 11:27:51;;;;;;;5.20;2.60;;;12.30;11.50;;;;;;5008066;28;20438;-74
2023/11/13 11:30:22;;;;;;;5.83;2.43;;;12.10;11.30;;;;;;5044971;28;20457;-74
2023/11/13 11:33:05;;;;;;;4.67;2.67;;;12.10;13.60;;;;;;5041331;28;20436;-74
2023/11/13 11:35:38;;;;;;;3.50;2.47;;;12.10;15.60;;;;;;5065183;28;20471;-73
2023/11/13 11:38:17;;;;;;;4.23;2.73;;;;;;;;;;5052794;28;20388;-74
2023/11/13 11:40:44;;;;;;;4.03;2.83;;;12.10;17.20;;;;;;5049229;28;20458;-73
2023/11/13 11:43:43;;;;;;;14.63;4.50;;;12.00;19.20;;;;;;5055653;28;20436;-73
2023/11/13 11:46:22;;;;;;;11.07;4.00;;;12.00;22.70;;;;;;5030274;28;20496;-83
2023/11/13 11:49:25;;;;;;;11.87;4.10;;;12.10;22.70;;;;;;5030882;28;20443;-84
2023/11/13 11:52:42;;;;;;;7.73;3.23;;;12.10;22.30;;;;;;5020428;28;20857;-84
2023/11/13 11:55:12;;;;;;;9.13;4.30;;;12.10;23.80;;;;;;4953339;29;20461;-84
2023/11/13 11:58:03;;;;;;;10.50;4.33;;;12.10;24.10;;;;;;4953809;29;20438;-84
2023/11/13 12:00:33;;;;;;;10.37;3.90;;;12.10;33.30;;;;;;4937324;29;20455;-74
2023/11/13 12:03:04;;;;;;;7.70;4.03;;;12.30;35.30;;;;;;4949977;28;20960;-73
2023/11/13 12:05:30;;;;;;;7.70;3.57;;;12.30;30.90;;;;;;4951938;28;21068;-73
2023/11/13 12:07:57;;;;;;;6.87;3.90;;;12.40;28.70;;;;;;4952632;29;20466;-73
2023/11/13 12:10:23;;;;;;;9.03;4.40;;;;;;;;;;4955992;28;20207;-73
2023/11/13 12:12:50;;;;;;;5.67;3.50;;;12.40;26.90;;;;;;4955549;28;20916;-73
2023/11/13 12:15:17;;;;;;;7.30;4.00;;;;;;;;;;4955334;28;20925;-73
2023/11/13 12:17:43;;;;;;;27.17;5.60;;;12.40;27.50;;;;;;4955501;29;21001;-73
2023/11/13 12:20:11;;;;;;;7.83;4.57;;;12.50;29.10;;;;;;4954204;28;20509;-73
2023/11/13 12:22:40;;;;;;;11.53;5.47;;;12.50;28.60;;;;;;4986461;28;20549;-73
2023/11/13 12:25:12;;;;;;;6.50;4.63;;;12.60;27.50;;;;;;5009269;28;20501;-73
2023/11/13 12:27:41;;;;;;;9.53;4.63;;;12.60;27.90;;;;;;5025094;28;20449;-73
2023/11/13 12:30:16;;;;;;;9.73;4.57;;;;;;;;;;5035908;28;20495;-73
2023/11/13 12:32:46;;;;;;;23.33;6.33;;;12.80;28.80;;;;;;5053101;28;20508;-73
2023/11/13 12:35:13;;;;;;;18.90;6.03;;;12.80;26.80;;;;;;5063539;28;20517;-74
2023/11/13 12:37:52;;;;;;;9.43;5.57;;;12.60;29.80;;;;;;5056488;28;20961;-73
2023/11/13 12:40:35;;;;;;;18.80;6.20;;;12.60;41.00;;;;;;5051406;28;20858;-73
2023/11/13 12:43:04;;;;;;;19.73;6.20;;;12.70;41.10;;;;;;5058224;28;20950;-73
2023/11/13 12:45:31;;;;;;;14.40;5.83;;;12.70;41.10;;;;;;5076320;28;20374;-73
2023/11/13 12:48:22;;;;;;;12.53;5.87;;;12.80;41.20;;;;;;5069103;28;20441;-73
2023/11/13 12:50:48;;;;;;;17.17;6.10;;;12.80;41.10;;;;;;5057818;28;20548;-74
2023/11/13 12:53:19;;;;;;;16.47;6.13;;;12.90;41.30;;;;;;5067407;28;20478;-74
2023/11/13 12:55:46;;;;;;;16.13;5.97;;;12.90;41.30;;;;;;5064252;28;20987;-74
2023/11/13 12:58:15;;;;;;;10.60;5.83;;;;;;;;;;5065649;28;20421;-74
2023/11/13 13:00:43;;;;;;;8.07;4.93;;;12.60;41.00;;;;;;5055254;28;20414;-74
2023/11/13 13:03:11;;;;;;;14.20;5.40;;;;;;;;;;5053295;28;20462;-83
2023/11/13 13:05:38;;;;;;;14.10;5.80;;;12.80;41.10;;;;;;5050767;28;20393;-84
2023/11/13 13:08:23;;;;;;;12.10;5.03;;;12.80;41.10;;;;;;5036357;28;20478;-84
2023/11/13 13:10:52;;;;;;;10.43;5.53;;;12.90;41.20;;;;;;5036583;28;20541;-84
2023/11/13 13:13:22;;;;;;;12.23;6.20;;;12.90;45.80;;;;;;5054789;28;20483;-83
2023/11/13 13:15:52;;;;;;;11.97;5.87;;;12.90;52.90;;;;;;5049385;28;20426;-84
2023/11/13 13:18:22;;;;;;;10.27;5.33;;;13.00;55.20;;;;;;5057474;28;20429;-84
2023/11/13 13:20:49;;;;;;;14.23;5.27;;;;;;;;;;5063650;28;20445;-84
2023/11/13 13:23:51;;;;;;;7.33;4.97;;;13.00;58.50;;;;;;5055806;28;20421;-85
2023/11/13 13:26:57;;;;;;;9.73;4.80;;;13.10;60.80;;;;;;5031852;28;20467;-85
2023/11/13 13:29:57;;;;;;;10.67;4.83;;;13.20;59.50;;;;;;5066872;28;20473;-82
2023/11/13 13:32:24;;;;;;;15.93;5.37;;;13.30;59.90;;;;;;5046869;28;20419;-74
2023/11/13 13:34:53;;;;;;;27.10;6.17;;;13.30;57.50;;;;;;5057564;28;20979;-74
2023/11/13 13:37:23;;;;;;;10.87;5.00;;;;;;;;;;5066365;28;20420;-74
2023/11/13 13:39:55;;;;;;;16.63;5.47;;;;;;;;;;5048712;28;20435;-73
2023/11/13 13:42:21;;;;;;;11.67;5.13;;;13.40;59.00;;;;;;5050331;28;20432;-74
2023/11/13 13:44:52;;;;;;;9.63;4.23;;;;;;;;;;5060428;28;20428;-74
2023/11/13 13:47:28;;;;;;;11.03;4.40;;;13.50;60.20;;;;;;5066276;28;20795;-84
2023/11/13 13:50:07;;;;;;;11.73;4.90;;;13.50;57.70;;;;;;5039239;28;20488;-83
2023/11/13 13:55:38;;;;;;;12.07;4.60;;;13.60;54.70;;;;;;5052799;28;20444;-84
2023/11/13 13:58:56;;;;;;;14.60;3.70;;;13.60;52.30;;;;;;5066405;28;20512;-84
2023/11/13 14:01:40;;;;;;;5.47;3.13;;;13.60;57.70;;;;;;5054396;28;20433;-83
2023/11/13 14:04:16;;;;;;;10.87;3.50;;;13.70;58.30;;;;;;5043468;28;20929;-79
2023/11/13 14:06:42;;;;;;;5.87;2.67;;;13.70;59.50;;;;;;5078014;28;20920;-81
2023/11/13 14:09:22;;;;;;;8.50;3.60;;;;;;;;;;5061749;28;20434;-81
2023/11/13 14:12:21;;;;;;;10.00;2.90;;;13.70;58.10;;;;;;5045279;28;20921;-81
2023/11/13 14:14:52;;;;;;;7.03;2.67;;;13.80;60.20;;;;;;5049875;28;20431;-81
2023/11/13 14:17:24;;;;;;;8.90;4.00;;;13.80;62.30;;;;;;5051201;28;20462;-81
2023/11/13 14:19:52;;;;;;;6.70;3.23;;;13.70;62.80;;;;;;5054047;28;20497;-81
2023/11/13 14:22:54;;;;;;;3.50;2.93;;;13.70;67.30;;;;;;5049689;28;20410;-81
2023/11/13 14:25:54;;;;;;;11.63;3.30;;;13.80;71.10;;;;;;5041107;28;20427;-82
2023/11/13 14:28:22;;;;;;;5.17;2.97;;;13.80;70.00;;;;;;5048909;28;20484;-82
2023/11/13 14:30:52;;;;;;;6.00;2.60;;;13.80;71.50;;;;;;5050359;28;20603;-82
2023/11/13 14:33:18;;;;;;;4.80;3.17;;;13.90;67.70;;;;;;5046977;28;20433;-73
2023/11/13 14:35:44;;;;;;;10.53;2.80;;;13.90;67.90;;;;;;5059704;28;20466;-73
2023/11/13 14:38:11;;;;;;;13.13;3.70;;;13.90;67.40;;;;;;5052727;28;20455;-73
2023/11/13 14:40:40;;;;;;;7.60;3.17;;;14.00;66.50;;;;;;5053761;28;20641;-74
2023/11/13 14:43:06;;;;;;;11.60;2.77;;;14.00;62.80;;;;;;5064336;28;20443;-73
2023/11/13 14:45:33;;;;;;;9.87;3.20;;;;;;;;;;5070137;28;20437;-74
2023/11/13 14:48:16;;;;;;;6.33;2.90;;;;;;;;;;5048589;28;20185;-83
2023/11/13 14:50:52;;;;;;;13.63;2.60;;;13.90;66.90;;;;;;5066967;28;20476;-83
2023/11/13 14:53:22;;;;;;;8.60;2.60;;;14.00;70.80;;;;;;5073513;28;20412;-80
2023/11/13 14:56:11;;;;;;;10.90;3.20;;;13.90;70.00;;;;;;5054984;28;20925;-84
2023/11/13 14:58:37;;;;;;;7.00;3.27;;;13.90;71.00;;;;;;5052722;28;20392;-84
2023/11/13 15:01:22;;;;;;;4.10;2.20;;;;;;;;;;5066197;28;20937;-85
2023/11/13 15:04:05;;;;;;;7.00;2.63;;;14.00;71.10;;;;;;5051454;28;20408;-74
2023/11/13 15:06:30;;;;;;;9.93;2.97;;;14.00;73.40;;;;;;5054548;28;20602;-74
2023/11/13 15:08:56;;;;;;;4.00;2.20;;;13.90;75.60;;;;;;5053289;28;20872;-74
2023/11/13 15:11:28;;;;;;;11.00;2.30;;;13.90;77.20;;;;;;5065231;28;20206;-74
2023/11/13 15:17:15;;;;;;;11.93;2.43;;;13.90;77.10;;;;;;5049146;28;20417;-77
2023/11/13 15:19:42;;;;;;;3.93;2.10;;;14.00;78.90;;;;;;5065642;28;20426;-73
2023/11/13 15:22:08;;;;;;;5.73;1.80;;;13.90;77.10;;;;;;5063520;28;20416;-73
2023/11/13 15:24:34;;;;;;;3.00;1.60;;;14.00;79.80;;;;;;5059745;28;20425;-74
2023/11/13 15:27:17;;;;;;;1.57;1.50;;;14.00;79.70;;;;;;5044338;28;20466;-74
2023/11/13 15:29:44;;;;;;;3.17;1.73;;;13.90;81.60;;;;;;5054438;28;20726;-75
2023/11/13 15:32:11;;;;;;;20.60;1.50;;;14.00;83.20;;;;;;5061008;28;20480;-74
2023/11/13 15:38:21;;;;;;;2.00;1.30;;;14.10;84.40;;;;;;5057968;28;20407;-85
2023/11/13 15:41:39;;;;;;;1.43;1.20;;;14.00;80.70;;;;;;5042839;28;20529;-85
2023/11/13 15:47:29;;;;;;;2.53;1.10;;;14.10;82.90;;;;;;5056256;28;20444;-85
2023/11/13 15:49:55;;;;;;;2.00;1.27;;;14.10;83.80;;;;;;5056809;28;20449;-74
2023/11/13 15:52:28;;;;;;;4.07;1.20;;;14.10;84.10;;;;;;5048807;28;20887;-74
2023/11/13 15:54:58;;;;;;;5.90;1.90;;;14.10;83.90;;;;;;5055301;28;20403;-74
2023/11/13 15:57:34;;;;;;;5.93;1.90;;;14.20;81.80;;;;;;5056122;28;20438;-74
2023/11/13 16:00:11;;;;;;;5.33;1.50;;;14.20;77.90;;;;;;5057384;28;20509;-74
2023/11/13 16:02:46;;;;;;;3.53;1.23;;;14.20;75.70;;;;;;5057797;28;20488;-75
2023/11/13 16:05:28;;;;;;;10.50;1.77;;;14.10;79.40;;;;;;5063744;28;20424;-84
2023/11/13 16:08:33;;;;;;;2.00;0.97;;;14.10;80.40;;;;;;5063030;28;20452;-84
2023/11/13 16:11:04;;;;;;;2.30;1.10;;;;;;;;;;5053760;28;20463;-83
2023/11/13 16:13:34;;;;;;;5.70;1.20;;;14.10;81.90;;;;;;5052143;28;20448;-84
2023/11/13 16:16:00;;;;;;;7.23;2.07;;;;;;;;;;5070576;28;20384;-84
2023/11/13 16:18:28;;;;;;;1.37;1.13;;;14.10;83.60;;;;;;5064730;28;20425;-74
2023/11/13 16:20:58;;;;;;;8.70;1.80;;;;;;;;;;5064322;28;20916;-74
2023/11/13 16:23:28;;;;;;;1.80;0.80;;;;;;;;;;5056129;28;20860;-76
2023/11/13 16:25:58;;;;;;;4.90;1.57;;;14.30;78.60;;;;;;5044815;28;20550;-75
2023/11/13 16:28:29;;;;;;;1.13;1.00;;;14.30;77.00;;;;;;5055728;28;20461;-76
2023/11/13 16:31:24;;;;;;;7.60;1.80;;;14.20;75.10;;;;;;5056256;28;20915;-75
2023/11/13 16:34:27;;;;;;;5.67;0.90;;;;;;;;;;5056977;28;20408;-84
2023/11/13 16:37:04;;;;;;;1.70;1.13;;;;;;;;;;5054951;28;20448;-83
2023/11/13 16:39:40;;;;;;;5.70;1.83;;;;;;;;;;5044286;28;20485;-82
2023/11/13 16:42:10;;;;;;;5.20;1.23;;;;;;;;;;5043777;28;20532;-82
2023/11/13 16:48:13;;;;;;;2.30;1.20;;;14.50;66.80;;;;;;5049963;28;20752;-82
2023/11/13 16:50:46;;;;;;;6.67;1.67;;;14.50;64.70;;;;;;5073532;28;20440;-81
2023/11/13 16:53:16;;;;;;;1.60;1.33;;;;;;;;;;5055116;28;20430;-82
2023/11/13 16:56:04;;;;;;;4.97;1.33;;;14.50;55.70;;;;;;5062249;28;20415;-82
2023/11/13 16:58:30;;;;;;;5.13;1.60;;;14.50;56.00;;;;;;5057821;28;20438;-82
2023/11/13 17:00:58;;;;;;;2.83;1.07;;;14.60;55.60;;;;;;5049330;28;20427;-82
2023/11/13 17:03:24;;;;;;;3.70;1.63;;;14.50;56.20;;;;;;5061227;28;20269;-74
2023/11/13 17:05:51;;;;;;;1.90;1.17;;;14.50;60.80;;;;;;5042034;28;20592;-74
2023/11/13 17:08:17;;;;;;;2.83;1.40;;;;;;;;;;5058062;28;20446;-74